Independence, CA (93526)

12:53 AM PDT on October 24, 2014 (GMT -0700)
Fort Independence | Change Station
CLOSE
Current Station
Personal Weather Station
Location: Independence, CA
Elevation: 1213 m
Nearby Weather Stations
Active Advisory: Wind Advisory

Elev 1213 m 36.83 °N, 118.22 °W | Updated 1 second ago

Clear
Clear
13.6 °C
Feels Like 13.6 °C
N
0.0
Wind Variable Wind from SE
Gusts 0.0 km/h

Today
High -- | Low -- °C
--% Chance of Precip.
Yesterday
High -- | Low -- °C
Precip. -- mm
7:08 AM 6:04 PM
New Moon, 0% visible
Pressure 1016 hPa
Visibility 16.1 kilometers
Clouds Clear
Dew Point -5 °C
Humidity 28%
Rainfall 0 mm
Snow Depth Not available.
UV 0 out of 12
Pollen 2.60 out of 12
Air Quality Not available.
Flu Activity Sporadic
METAR KBIH 240656Z AUTO 30006KT 10SM CLR 08/M04 A3008 RMK AO2 SLP159 T00831039

More Conditions Fewer Conditions

Pressure 1016 hPa
Visibility 16.1 kilometers
Clouds Clear
Dew Point -5 °C
Humidity 28%
Rainfall 0 mm
Snow Depth Not available.
UV 0 out of 12
Pollen 2.60 out of 12
Air Quality Not available.
Flu Activity Sporadic
METAR KBIH 240656Z AUTO 30006KT 10SM CLR 08/M04 A3008 RMK AO2 SLP159 T00831039

More Conditions Fewer Conditions

10-Day Weather Forecast

Almanac

Astronomy

Oct. 24, 2014 Rise Set
Actual Time 7:08 AM PDT 6:04 PM PDT
Civil Twilight 6:42 AM PDT 6:31 PM PDT
Nautical Twilight 6:12 AM PDT 7:01 PM PDT
Astronomical Twilight 5:42 AM PDT 7:31 PM PDT
Moon 7:51 AM PDT 6:49 PM PDT
Length of Visible Light 11h 48m
Length of Day
10h 55m
Tomorrow will be 2m 10s shorter.
New Moon, 0% of the Moon is Illuminated
Today
New Moon
Oct 30
First Quarter
Nov 6
Full
Nov 14
Last Quarter
Nov 22
New

Today's Extremes

State Highs State Lows

Community

WunderPhotos

Upload Photos

1,764,512 photos uploaded!

WunderBlogs® & News

Nearby

Snow Depth

Station Depth Elevation
Virginia Lakes Ridge 0 in 9200 ft
Leavitt Lake 1 in 9400 ft
Leavitt Meadows 0 in 7200 ft
Sonora Pass 0 in 8800 ft
Summit Meadow 1 in 9122 ft

Earthquake Activity

City Distance Mag. Time & Date
Kettleman City, California 176 kilometers 2.5 9:08 AM PDT
2014-10-22
Warm Springs, Nevada 226 kilometers 3.0 1:08 PM PDT
2014-10-21
Mammoth Lakes, California 86 kilometers 3.0 11:10 PM PDT
2014-10-20
Minimum magnitude displayed is 2.5.

Coastal Water Temperatures

Place Temperature
No Stations Reporting

Nearby Weather Stations